sensor_id;sensor_type;location;lat;lon;timestamp;P1;durP1;ratioP1;P2;durP2;ratioP2
76865;SDS011;66647;52.124;5.416;2023-04-08T00:01:49;37.60;;;6.50;;
76865;SDS011;66647;52.124;5.416;2023-04-08T00:04:17;29.40;;;6.38;;
76865;SDS011;66647;52.124;5.416;2023-04-08T00:06:44;18.67;;;7.13;;
76865;SDS011;66647;52.124;5.416;2023-04-08T00:09:13;18.67;;;6.40;;
76865;SDS011;66647;52.124;5.416;2023-04-08T00:11:39;24.23;;;6.88;;
76865;SDS011;66647;52.124;5.416;2023-04-08T00:14:06;44.08;;;7.43;;
76865;SDS011;66647;52.124;5.416;2023-04-08T00:16:33;28.63;;;7.15;;
76865;SDS011;66647;52.124;5.416;2023-04-08T00:19:00;30.30;;;6.47;;
76865;SDS011;66647;52.124;5.416;2023-04-08T00:21:26;28.27;;;5.55;;
76865;SDS011;66647;52.124;5.416;2023-04-08T00:23:53;35.85;;;6.30;;
76865;SDS011;66647;52.124;5.416;2023-04-08T00:26:19;20.77;;;5.25;;
76865;SDS011;66647;52.124;5.416;2023-04-08T00:28:46;48.95;;;5.68;;
76865;SDS011;66647;52.124;5.416;2023-04-08T00:31:13;63.88;;;7.07;;
76865;SDS011;66647;52.124;5.416;2023-04-08T00:33:40;29.23;;;5.43;;
76865;SDS011;66647;52.124;5.416;2023-04-08T00:36:06;29.40;;;6.10;;
76865;SDS011;66647;52.124;5.416;2023-04-08T00:38:33;28.70;;;5.70;;
76865;SDS011;66647;52.124;5.416;2023-04-08T00:40:59;50.22;;;6.57;;
76865;SDS011;66647;52.124;5.416;2023-04-08T00:43:26;32.00;;;6.45;;
76865;SDS011;66647;52.124;5.416;2023-04-08T00:45:53;45.92;;;5.88;;
76865;SDS011;66647;52.124;5.416;2023-04-08T00:48:20;53.25;;;5.55;;
76865;SDS011;66647;52.124;5.416;2023-04-08T00:50:48;19.20;;;5.70;;
76865;SDS011;66647;52.124;5.416;2023-04-08T00:53:16;48.42;;;6.38;;
76865;SDS011;66647;52.124;5.416;2023-04-08T00:55:44;35.50;;;5.88;;
76865;SDS011;66647;52.124;5.416;2023-04-08T00:58:12;63.35;;;5.60;;
76865;SDS011;66647;52.124;5.416;2023-04-08T01:00:41;33.10;;;5.47;;
76865;SDS011;66647;52.124;5.416;2023-04-08T01:06:21;55.30;;;4.68;;
76865;SDS011;66647;52.124;5.416;2023-04-08T01:08:56;56.75;;;4.40;;
76865;SDS011;66647;52.124;5.416;2023-04-08T01:11:26;52.65;;;5.63;;
76865;SDS011;66647;52.124;5.416;2023-04-08T01:13:56;53.30;;;5.68;;
76865;SDS011;66647;52.124;5.416;2023-04-08T01:16:23;28.40;;;4.50;;
76865;SDS011;66647;52.124;5.416;2023-04-08T01:18:51;37.33;;;4.63;;
76865;SDS011;66647;52.124;5.416;2023-04-08T01:21:19;42.63;;;5.18;;
76865;SDS011;66647;52.124;5.416;2023-04-08T01:23:53;35.55;;;4.93;;
76865;SDS011;66647;52.124;5.416;2023-04-08T01:26:23;29.92;;;4.63;;
76865;SDS011;66647;52.124;5.416;2023-04-08T01:28:55;27.42;;;4.72;;
76865;SDS011;66647;52.124;5.416;2023-04-08T01:31:24;49.40;;;4.82;;
76865;SDS011;66647;52.124;5.416;2023-04-08T01:33:52;56.65;;;4.63;;
76865;SDS011;66647;52.124;5.416;2023-04-08T01:36:20;70.95;;;4.65;;
76865;SDS011;66647;52.124;5.416;2023-04-08T01:38:49;23.95;;;4.15;;
76865;SDS011;66647;52.124;5.416;2023-04-08T01:41:17;35.75;;;3.85;;
76865;SDS011;66647;52.124;5.416;2023-04-08T01:43:50;33.08;;;4.05;;
76865;SDS011;66647;52.124;5.416;2023-04-08T01:46:18;33.92;;;3.42;;
76865;SDS011;66647;52.124;5.416;2023-04-08T01:48:46;33.33;;;4.43;;
76865;SDS011;66647;52.124;5.416;2023-04-08T01:51:14;51.90;;;4.35;;
76865;SDS011;66647;52.124;5.416;2023-04-08T01:53:42;47.80;;;3.75;;
76865;SDS011;66647;52.124;5.416;2023-04-08T01:56:11;62.25;;;3.70;;
76865;SDS011;66647;52.124;5.416;2023-04-08T01:58:41;41.53;;;3.08;;
76865;SDS011;66647;52.124;5.416;2023-04-08T02:01:13;37.40;;;3.63;;
76865;SDS011;66647;52.124;5.416;2023-04-08T02:03:45;47.45;;;3.70;;
76865;SDS011;66647;52.124;5.416;2023-04-08T02:06:13;27.58;;;3.63;;
76865;SDS011;66647;52.124;5.416;2023-04-08T02:08:39;28.83;;;3.58;;
76865;SDS011;66647;52.124;5.416;2023-04-08T02:11:06;23.90;;;4.18;;
76865;SDS011;66647;52.124;5.416;2023-04-08T02:13:32;22.05;;;3.70;;
76865;SDS011;66647;52.124;5.416;2023-04-08T02:16:14;31.33;;;3.80;;
76865;SDS011;66647;52.124;5.416;2023-04-08T02:18:50;36.78;;;4.32;;
76865;SDS011;66647;52.124;5.416;2023-04-08T02:21:31;18.30;;;4.32;;
76865;SDS011;66647;52.124;5.416;2023-04-08T02:24:12;21.08;;;3.85;;
76865;SDS011;66647;52.124;5.416;2023-04-08T02:26:41;62.83;;;4.90;;
76865;SDS011;66647;52.124;5.416;2023-04-08T02:29:12;18.48;;;4.05;;
76865;SDS011;66647;52.124;5.416;2023-04-08T02:34:09;25.67;;;3.55;;
76865;SDS011;66647;52.124;5.416;2023-04-08T02:36:38;39.58;;;4.32;;
76865;SDS011;66647;52.124;5.416;2023-04-08T02:39:06;32.95;;;4.53;;
76865;SDS011;66647;52.124;5.416;2023-04-08T02:41:33;28.05;;;3.97;;
76865;SDS011;66647;52.124;5.416;2023-04-08T02:43:59;34.38;;;4.13;;
76865;SDS011;66647;52.124;5.416;2023-04-08T02:46:26;42.53;;;4.10;;
76865;SDS011;66647;52.124;5.416;2023-04-08T02:48:52;35.03;;;4.10;;
76865;SDS011;66647;52.124;5.416;2023-04-08T02:51:19;31.70;;;3.95;;
76865;SDS011;66647;52.124;5.416;2023-04-08T02:53:47;44.72;;;4.22;;
76865;SDS011;66647;52.124;5.416;2023-04-08T02:56:16;32.60;;;3.78;;
76865;SDS011;66647;52.124;5.416;2023-04-08T02:58:43;21.80;;;3.72;;
76865;SDS011;66647;52.124;5.416;2023-04-08T03:01:09;23.17;;;3.63;;
76865;SDS011;66647;52.124;5.416;2023-04-08T03:03:38;13.93;;;3.03;;
76865;SDS011;66647;52.124;5.416;2023-04-08T03:06:05;24.55;;;3.33;;
76865;SDS011;66647;52.124;5.416;2023-04-08T03:08:31;23.67;;;4.10;;
76865;SDS011;66647;52.124;5.416;2023-04-08T03:10:58;14.38;;;4.05;;
76865;SDS011;66647;52.124;5.416;2023-04-08T03:13:25;17.05;;;4.00;;
76865;SDS011;66647;52.124;5.416;2023-04-08T03:15:52;28.65;;;4.13;;
76865;SDS011;66647;52.124;5.416;2023-04-08T03:18:18;28.48;;;4.55;;
76865;SDS011;66647;52.124;5.416;2023-04-08T03:20:45;23.27;;;7.10;;
76865;SDS011;66647;52.124;5.416;2023-04-08T03:23:11;14.27;;;4.85;;
76865;SDS011;66647;52.124;5.416;2023-04-08T03:25:38;18.20;;;5.15;;
76865;SDS011;66647;52.124;5.416;2023-04-08T03:28:04;12.23;;;4.82;;
76865;SDS011;66647;52.124;5.416;2023-04-08T03:30:31;12.60;;;4.45;;
76865;SDS011;66647;52.124;5.416;2023-04-08T03:32:57;19.10;;;5.50;;
76865;SDS011;66647;52.124;5.416;2023-04-08T03:35:24;18.50;;;5.70;;
76865;SDS011;66647;52.124;5.416;2023-04-08T03:37:51;18.25;;;6.05;;
76865;SDS011;66647;52.124;5.416;2023-04-08T03:40:17;19.75;;;5.90;;
76865;SDS011;66647;52.124;5.416;2023-04-08T03:42:44;12.30;;;6.18;;
76865;SDS011;66647;52.124;5.416;2023-04-08T03:45:13;29.08;;;7.00;;
76865;SDS011;66647;52.124;5.416;2023-04-08T03:47:39;38.13;;;7.10;;
76865;SDS011;66647;52.124;5.416;2023-04-08T03:50:07;27.27;;;5.97;;
76865;SDS011;66647;52.124;5.416;2023-04-08T03:52:37;21.40;;;6.72;;
76865;SDS011;66647;52.124;5.416;2023-04-08T03:55:06;31.70;;;7.00;;
76865;SDS011;66647;52.124;5.416;2023-04-08T03:57:32;28.35;;;7.05;;
76865;SDS011;66647;52.124;5.416;2023-04-08T03:59:59;27.40;;;7.35;;
76865;SDS011;66647;52.124;5.416;2023-04-08T04:02:25;21.40;;;6.28;;
76865;SDS011;66647;52.124;5.416;2023-04-08T04:04:52;13.88;;;6.68;;
76865;SDS011;66647;52.124;5.416;2023-04-08T04:07:19;18.50;;;7.90;;
76865;SDS011;66647;52.124;5.416;2023-04-08T04:09:46;25.35;;;7.38;;
76865;SDS011;66647;52.124;5.416;2023-04-08T04:12:12;21.27;;;6.65;;
76865;SDS011;66647;52.124;5.416;2023-04-08T04:14:39;25.83;;;6.70;;
76865;SDS011;66647;52.124;5.416;2023-04-08T04:17:06;22.83;;;6.10;;
76865;SDS011;66647;52.124;5.416;2023-04-08T04:19:33;19.92;;;5.93;;
76865;SDS011;66647;52.124;5.416;2023-04-08T04:21:59;19.30;;;4.88;;
76865;SDS011;66647;52.124;5.416;2023-04-08T04:24:26;14.07;;;5.90;;
76865;SDS011;66647;52.124;5.416;2023-04-08T04:26:52;15.00;;;5.45;;
76865;SDS011;66647;52.124;5.416;2023-04-08T04:29:21;16.30;;;6.05;;
76865;SDS011;66647;52.124;5.416;2023-04-08T04:31:47;22.05;;;6.70;;
76865;SDS011;66647;52.124;5.416;2023-04-08T04:34:16;12.30;;;5.85;;
76865;SDS011;66647;52.124;5.416;2023-04-08T04:36:43;12.88;;;6.03;;
76865;SDS011;66647;52.124;5.416;2023-04-08T04:39:10;15.82;;;6.32;;
76865;SDS011;66647;52.124;5.416;2023-04-08T04:41:38;13.88;;;6.10;;
76865;SDS011;66647;52.124;5.416;2023-04-08T04:44:05;15.73;;;6.30;;
76865;SDS011;66647;52.124;5.416;2023-04-08T04:46:32;12.63;;;6.35;;
76865;SDS011;66647;52.124;5.416;2023-04-08T04:48:59;18.73;;;6.65;;
76865;SDS011;66647;52.124;5.416;2023-04-08T04:51:25;13.50;;;6.10;;
76865;SDS011;66647;52.124;5.416;2023-04-08T04:53:52;14.68;;;6.80;;
76865;SDS011;66647;52.124;5.416;2023-04-08T04:56:18;14.55;;;5.78;;
76865;SDS011;66647;52.124;5.416;2023-04-08T04:58:47;18.33;;;6.22;;
76865;SDS011;66647;52.124;5.416;2023-04-08T05:01:17;16.20;;;5.85;;
76865;SDS011;66647;52.124;5.416;2023-04-08T05:03:43;14.45;;;6.20;;
76865;SDS011;66647;52.124;5.416;2023-04-08T05:06:10;14.75;;;5.97;;
76865;SDS011;66647;52.124;5.416;2023-04-08T05:08:36;18.92;;;5.75;;
76865;SDS011;66647;52.124;5.416;2023-04-08T05:11:09;12.75;;;5.63;;
76865;SDS011;66647;52.124;5.416;2023-04-08T05:13:36;12.63;;;4.95;;
76865;SDS011;66647;52.124;5.416;2023-04-08T05:16:02;13.73;;;5.75;;
76865;SDS011;66647;52.124;5.416;2023-04-08T05:18:32;10.10;;;5.47;;
76865;SDS011;66647;52.124;5.416;2023-04-08T05:20:59;16.35;;;7.10;;
76865;SDS011;66647;52.124;5.416;2023-04-08T05:23:26;12.50;;;5.75;;
76865;SDS011;66647;52.124;5.416;2023-04-08T05:25:56;12.75;;;5.82;;
76865;SDS011;66647;52.124;5.416;2023-04-08T05:28:24;13.18;;;5.65;;
76865;SDS011;66647;52.124;5.416;2023-04-08T05:30:51;12.00;;;5.55;;
76865;SDS011;66647;52.124;5.416;2023-04-08T05:33:19;14.95;;;5.82;;
76865;SDS011;66647;52.124;5.416;2023-04-08T05:35:50;12.13;;;5.88;;
76865;SDS011;66647;52.124;5.416;2023-04-08T05:38:17;14.52;;;6.35;;
76865;SDS011;66647;52.124;5.416;2023-04-08T05:40:43;11.20;;;4.82;;
76865;SDS011;66647;52.124;5.416;2023-04-08T05:43:10;10.23;;;4.95;;
76865;SDS011;66647;52.124;5.416;2023-04-08T05:45:38;10.70;;;5.00;;
76865;SDS011;66647;52.124;5.416;2023-04-08T05:48:05;10.68;;;4.65;;
76865;SDS011;66647;52.124;5.416;2023-04-08T05:50:33;11.55;;;4.95;;
76865;SDS011;66647;52.124;5.416;2023-04-08T05:53:00;10.85;;;5.40;;
76865;SDS011;66647;52.124;5.416;2023-04-08T05:55:27;9.93;;;4.93;;
76865;SDS011;66647;52.124;5.416;2023-04-08T05:57:53;10.57;;;4.78;;
76865;SDS011;66647;52.124;5.416;2023-04-08T06:00:20;10.77;;;4.97;;
76865;SDS011;66647;52.124;5.416;2023-04-08T06:02:47;12.13;;;5.10;;
76865;SDS011;66647;52.124;5.416;2023-04-08T06:05:16;7.85;;;4.00;;
76865;SDS011;66647;52.124;5.416;2023-04-08T06:07:44;8.45;;;4.13;;
76865;SDS011;66647;52.124;5.416;2023-04-08T06:10:10;9.68;;;4.40;;
76865;SDS011;66647;52.124;5.416;2023-04-08T06:12:41;8.80;;;4.00;;
76865;SDS011;66647;52.124;5.416;2023-04-08T06:15:07;7.93;;;3.75;;
76865;SDS011;66647;52.124;5.416;2023-04-08T06:17:35;8.18;;;3.85;;
76865;SDS011;66647;52.124;5.416;2023-04-08T06:20:03;9.50;;;4.15;;
76865;SDS011;66647;52.124;5.416;2023-04-08T06:22:34;7.63;;;3.67;;
76865;SDS011;66647;52.124;5.416;2023-04-08T06:25:03;8.15;;;3.50;;
76865;SDS011;66647;52.124;5.416;2023-04-08T06:27:30;8.32;;;3.95;;
76865;SDS011;66647;52.124;5.416;2023-04-08T06:29:58;8.20;;;3.97;;
76865;SDS011;66647;52.124;5.416;2023-04-08T06:32:25;7.45;;;3.53;;
76865;SDS011;66647;52.124;5.416;2023-04-08T06:34:52;8.30;;;4.30;;
76865;SDS011;66647;52.124;5.416;2023-04-08T06:37:20;7.22;;;3.50;;
76865;SDS011;66647;52.124;5.416;2023-04-08T06:39:47;9.05;;;3.47;;
76865;SDS011;66647;52.124;5.416;2023-04-08T06:42:13;7.53;;;3.53;;
76865;SDS011;66647;52.124;5.416;2023-04-08T06:45:05;10.07;;;3.65;;
76865;SDS011;66647;52.124;5.416;2023-04-08T06:47:35;9.60;;;3.80;;
76865;SDS011;66647;52.124;5.416;2023-04-08T06:50:01;8.80;;;4.25;;
76865;SDS011;66647;52.124;5.416;2023-04-08T06:52:28;8.48;;;4.35;;
76865;SDS011;66647;52.124;5.416;2023-04-08T06:54:55;8.35;;;3.75;;
76865;SDS011;66647;52.124;5.416;2023-04-08T06:57:21;10.48;;;4.90;;
76865;SDS011;66647;52.124;5.416;2023-04-08T06:59:48;7.82;;;3.88;;
76865;SDS011;66647;52.124;5.416;2023-04-08T07:02:16;8.00;;;3.83;;
76865;SDS011;66647;52.124;5.416;2023-04-08T07:04:44;7.50;;;3.75;;
76865;SDS011;66647;52.124;5.416;2023-04-08T07:07:13;7.72;;;4.38;;
76865;SDS011;66647;52.124;5.416;2023-04-08T07:09:43;8.75;;;3.90;;
76865;SDS011;66647;52.124;5.416;2023-04-08T07:12:11;9.15;;;3.88;;
76865;SDS011;66647;52.124;5.416;2023-04-08T07:14:38;8.48;;;3.63;;
76865;SDS011;66647;52.124;5.416;2023-04-08T07:17:05;7.75;;;3.88;;
76865;SDS011;66647;52.124;5.416;2023-04-08T07:19:32;9.60;;;4.25;;
76865;SDS011;66647;52.124;5.416;2023-04-08T07:21:59;7.93;;;4.10;;
76865;SDS011;66647;52.124;5.416;2023-04-08T07:24:25;8.13;;;4.20;;
76865;SDS011;66647;52.124;5.416;2023-04-08T07:26:53;7.95;;;4.03;;
76865;SDS011;66647;52.124;5.416;2023-04-08T07:29:21;9.90;;;4.55;;
76865;SDS011;66647;52.124;5.416;2023-04-08T07:31:48;7.63;;;3.50;;
76865;SDS011;66647;52.124;5.416;2023-04-08T07:34:14;7.32;;;3.53;;
76865;SDS011;66647;52.124;5.416;2023-04-08T07:36:41;8.90;;;3.65;;
76865;SDS011;66647;52.124;5.416;2023-04-08T07:39:08;8.57;;;3.83;;
76865;SDS011;66647;52.124;5.416;2023-04-08T07:41:34;7.72;;;3.70;;
76865;SDS011;66647;52.124;5.416;2023-04-08T07:44:01;7.55;;;3.47;;
76865;SDS011;66647;52.124;5.416;2023-04-08T07:46:30;6.72;;;3.83;;
76865;SDS011;66647;52.124;5.416;2023-04-08T07:48:59;7.38;;;3.78;;
76865;SDS011;66647;52.124;5.416;2023-04-08T07:51:25;7.53;;;3.53;;
76865;SDS011;66647;52.124;5.416;2023-04-08T07:53:52;7.43;;;4.22;;
76865;SDS011;66647;52.124;5.416;2023-04-08T07:56:22;6.43;;;4.10;;
76865;SDS011;66647;52.124;5.416;2023-04-08T07:58:49;8.43;;;4.22;;
76865;SDS011;66647;52.124;5.416;2023-04-08T08:01:19;7.57;;;4.25;;
76865;SDS011;66647;52.124;5.416;2023-04-08T08:03:50;8.10;;;3.75;;
76865;SDS011;66647;52.124;5.416;2023-04-08T08:06:20;9.55;;;3.83;;
76865;SDS011;66647;52.124;5.416;2023-04-08T08:08:47;7.28;;;4.38;;
76865;SDS011;66647;52.124;5.416;2023-04-08T08:11:16;6.60;;;3.75;;
76865;SDS011;66647;52.124;5.416;2023-04-08T08:13:44;9.00;;;4.28;;
76865;SDS011;66647;52.124;5.416;2023-04-08T08:16:14;6.68;;;4.28;;
76865;SDS011;66647;52.124;5.416;2023-04-08T08:18:40;7.05;;;3.47;;
76865;SDS011;66647;52.124;5.416;2023-04-08T08:21:07;6.20;;;3.97;;
76865;SDS011;66647;52.124;5.416;2023-04-08T08:23:34;6.93;;;3.53;;
76865;SDS011;66647;52.124;5.416;2023-04-08T08:26:01;7.40;;;3.97;;
76865;SDS011;66647;52.124;5.416;2023-04-08T08:28:29;5.82;;;3.65;;
76865;SDS011;66647;52.124;5.416;2023-04-08T08:30:55;7.10;;;4.35;;
76865;SDS011;66647;52.124;5.416;2023-04-08T08:33:23;5.20;;;3.78;;
76865;SDS011;66647;52.124;5.416;2023-04-08T08:35:49;6.82;;;3.80;;
76865;SDS011;66647;52.124;5.416;2023-04-08T08:38:17;7.40;;;3.80;;
76865;SDS011;66647;52.124;5.416;2023-04-08T08:40:44;7.05;;;4.40;;
76865;SDS011;66647;52.124;5.416;2023-04-08T08:43:10;6.82;;;4.18;;
76865;SDS011;66647;52.124;5.416;2023-04-08T08:45:40;8.15;;;4.53;;
76865;SDS011;66647;52.124;5.416;2023-04-08T08:48:07;8.35;;;5.07;;
76865;SDS011;66647;52.124;5.416;2023-04-08T08:50:34;8.20;;;4.28;;
76865;SDS011;66647;52.124;5.416;2023-04-08T08:53:04;8.30;;;4.65;;
76865;SDS011;66647;52.124;5.416;2023-04-08T08:55:31;6.10;;;3.95;;
76865;SDS011;66647;52.124;5.416;2023-04-08T08:58:20;5.38;;;3.78;;
76865;SDS011;66647;52.124;5.416;2023-04-08T09:00:47;8.65;;;4.55;;
76865;SDS011;66647;52.124;5.416;2023-04-08T09:03:17;5.32;;;3.83;;
76865;SDS011;66647;52.124;5.416;2023-04-08T09:05:47;8.27;;;4.32;;
76865;SDS011;66647;52.124;5.416;2023-04-08T09:08:30;7.75;;;4.15;;
76865;SDS011;66647;52.124;5.416;2023-04-08T09:11:15;7.63;;;4.18;;
76865;SDS011;66647;52.124;5.416;2023-04-08T09:16:12;7.13;;;3.90;;
76865;SDS011;66647;52.124;5.416;2023-04-08T09:18:42;7.22;;;4.15;;
76865;SDS011;66647;52.124;5.416;2023-04-08T09:21:15;6.78;;;4.45;;
76865;SDS011;66647;52.124;5.416;2023-04-08T09:23:49;5.32;;;3.78;;
76865;SDS011;66647;52.124;5.416;2023-04-08T09:26:18;6.22;;;4.15;;
76865;SDS011;66647;52.124;5.416;2023-04-08T09:29:00;6.70;;;4.20;;
76865;SDS011;66647;52.124;5.416;2023-04-08T09:31:53;7.35;;;4.95;;
76865;SDS011;66647;52.124;5.416;2023-04-08T09:34:22;6.53;;;4.20;;
76865;SDS011;66647;52.124;5.416;2023-04-08T09:36:50;6.50;;;4.30;;
76865;SDS011;66647;52.124;5.416;2023-04-08T09:39:18;7.18;;;4.88;;
76865;SDS011;66647;52.124;5.416;2023-04-08T09:41:48;7.43;;;4.82;;
76865;SDS011;66647;52.124;5.416;2023-04-08T09:44:17;6.55;;;4.90;;
76865;SDS011;66647;52.124;5.416;2023-04-08T09:51:58;8.57;;;5.75;;
76865;SDS011;66647;52.124;5.416;2023-04-08T09:55:08;7.43;;;5.30;;
76865;SDS011;66647;52.124;5.416;2023-04-08T09:57:20;8.77;;;5.00;;
76865;SDS011;66647;52.124;5.416;2023-04-08T09:59:52;9.30;;;5.15;;
76865;SDS011;66647;52.124;5.416;2023-04-08T10:02:28;8.32;;;5.05;;
76865;SDS011;66647;52.124;5.416;2023-04-08T10:04:57;6.85;;;4.55;;
76865;SDS011;66647;52.124;5.416;2023-04-08T10:07:26;9.10;;;5.38;;
76865;SDS011;66647;52.124;5.416;2023-04-08T10:09:53;6.47;;;3.78;;
76865;SDS011;66647;52.124;5.416;2023-04-08T10:12:19;9.13;;;5.22;;
76865;SDS011;66647;52.124;5.416;2023-04-08T10:15:33;6.50;;;4.55;;
76865;SDS011;66647;52.124;5.416;2023-04-08T10:17:52;7.57;;;4.35;;
76865;SDS011;66647;52.124;5.416;2023-04-08T10:23:02;6.13;;;4.25;;
76865;SDS011;66647;52.124;5.416;2023-04-08T10:25:30;6.90;;;3.97;;
76865;SDS011;66647;52.124;5.416;2023-04-08T10:27:58;7.40;;;4.65;;
76865;SDS011;66647;52.124;5.416;2023-04-08T10:32:58;7.68;;;4.53;;
76865;SDS011;66647;52.124;5.416;2023-04-08T10:35:33;5.65;;;3.45;;
76865;SDS011;66647;52.124;5.416;2023-04-08T10:38:02;8.45;;;4.10;;
76865;SDS011;66647;52.124;5.416;2023-04-08T10:40:34;7.28;;;4.43;;
76865;SDS011;66647;52.124;5.416;2023-04-08T10:43:06;7.63;;;3.83;;
76865;SDS011;66647;52.124;5.416;2023-04-08T10:45:40;7.28;;;4.68;;
76865;SDS011;66647;52.124;5.416;2023-04-08T10:50:52;7.00;;;4.00;;
76865;SDS011;66647;52.124;5.416;2023-04-08T10:53:26;6.80;;;4.07;;
76865;SDS011;66647;52.124;5.416;2023-04-08T10:56:07;5.60;;;3.33;;
76865;SDS011;66647;52.124;5.416;2023-04-08T10:58:34;6.50;;;3.75;;
76865;SDS011;66647;52.124;5.416;2023-04-08T11:01:05;9.18;;;4.72;;
76865;SDS011;66647;52.124;5.416;2023-04-08T11:03:33;7.63;;;4.97;;
76865;SDS011;66647;52.124;5.416;2023-04-08T11:06:02;8.45;;;5.18;;
76865;SDS011;66647;52.124;5.416;2023-04-08T11:08:29;6.35;;;4.20;;
76865;SDS011;66647;52.124;5.416;2023-04-08T11:10:58;8.20;;;4.57;;
76865;SDS011;66647;52.124;5.416;2023-04-08T11:13:28;6.50;;;3.90;;
76865;SDS011;66647;52.124;5.416;2023-04-08T11:15:56;7.47;;;4.57;;
76865;SDS011;66647;52.124;5.416;2023-04-08T11:18:24;6.65;;;3.65;;
76865;SDS011;66647;52.124;5.416;2023-04-08T11:20:52;7.53;;;3.95;;
76865;SDS011;66647;52.124;5.416;2023-04-08T11:23:19;7.55;;;4.85;;
76865;SDS011;66647;52.124;5.416;2023-04-08T11:25:48;6.97;;;4.10;;
76865;SDS011;66647;52.124;5.416;2023-04-08T11:28:16;6.75;;;3.70;;
76865;SDS011;66647;52.124;5.416;2023-04-08T11:30:44;6.65;;;3.63;;
76865;SDS011;66647;52.124;5.416;2023-04-08T11:33:13;8.20;;;4.35;;
76865;SDS011;66647;52.124;5.416;2023-04-08T11:35:40;9.35;;;4.90;;
76865;SDS011;66647;52.124;5.416;2023-04-08T11:38:07;8.00;;;3.63;;
76865;SDS011;66647;52.124;5.416;2023-04-08T11:40:37;7.38;;;3.88;;
76865;SDS011;66647;52.124;5.416;2023-04-08T11:43:10;7.70;;;3.38;;
76865;SDS011;66647;52.124;5.416;2023-04-08T11:45:38;7.35;;;4.18;;
76865;SDS011;66647;52.124;5.416;2023-04-08T11:48:14;7.30;;;3.22;;
76865;SDS011;66647;52.124;5.416;2023-04-08T11:50:41;9.35;;;4.45;;
76865;SDS011;66647;52.124;5.416;2023-04-08T11:53:18;7.50;;;4.10;;
76865;SDS011;66647;52.124;5.416;2023-04-08T11:55:46;7.30;;;3.35;;
76865;SDS011;66647;52.124;5.416;2023-04-08T11:58:14;6.03;;;2.90;;
76865;SDS011;66647;52.124;5.416;2023-04-08T12:00:41;7.28;;;3.53;;
76865;SDS011;66647;52.124;5.416;2023-04-08T12:03:09;7.00;;;3.20;;
76865;SDS011;66647;52.124;5.416;2023-04-08T12:05:39;6.07;;;3.13;;
76865;SDS011;66647;52.124;5.416;2023-04-08T12:08:05;8.23;;;3.25;;
76865;SDS011;66647;52.124;5.416;2023-04-08T12:10:32;7.72;;;3.13;;
76865;SDS011;66647;52.124;5.416;2023-04-08T12:12:59;6.68;;;2.55;;
76865;SDS011;66647;52.124;5.416;2023-04-08T12:15:33;6.50;;;2.03;;
76865;SDS011;66647;52.124;5.416;2023-04-08T12:18:29;5.95;;;2.80;;
76865;SDS011;66647;52.124;5.416;2023-04-08T12:20:55;5.38;;;1.95;;
76865;SDS011;66647;52.124;5.416;2023-04-08T12:23:22;7.38;;;2.13;;
76865;SDS011;66647;52.124;5.416;2023-04-08T12:25:49;5.95;;;2.53;;
76865;SDS011;66647;52.124;5.416;2023-04-08T12:28:16;6.32;;;2.70;;
76865;SDS011;66647;52.124;5.416;2023-04-08T12:30:45;5.18;;;1.80;;
76865;SDS011;66647;52.124;5.416;2023-04-08T12:33:13;5.95;;;1.98;;
76865;SDS011;66647;52.124;5.416;2023-04-08T12:35:39;6.20;;;1.95;;
76865;SDS011;66647;52.124;5.416;2023-04-08T12:38:06;7.43;;;2.10;;
76865;SDS011;66647;52.124;5.416;2023-04-08T12:40:33;5.95;;;1.88;;
76865;SDS011;66647;52.124;5.416;2023-04-08T12:42:59;4.32;;;1.75;;
76865;SDS011;66647;52.124;5.416;2023-04-08T12:45:26;4.18;;;1.75;;
76865;SDS011;66647;52.124;5.416;2023-04-08T12:47:54;6.75;;;2.42;;
76865;SDS011;66647;52.124;5.416;2023-04-08T12:50:21;8.10;;;2.72;;
76865;SDS011;66647;52.124;5.416;2023-04-08T12:52:48;8.30;;;2.80;;
76865;SDS011;66647;52.124;5.416;2023-04-08T12:55:15;5.65;;;2.22;;
76865;SDS011;66647;52.124;5.416;2023-04-08T12:57:42;5.80;;;1.77;;
76865;SDS011;66647;52.124;5.416;2023-04-08T13:00:08;6.00;;;1.88;;
76865;SDS011;66647;52.124;5.416;2023-04-08T13:02:37;4.03;;;0.77;;
76865;SDS011;66647;52.124;5.416;2023-04-08T13:05:07;3.42;;;1.25;;
76865;SDS011;66647;52.124;5.416;2023-04-08T13:07:34;6.78;;;1.85;;
76865;SDS011;66647;52.124;5.416;2023-04-08T13:10:00;5.25;;;2.17;;
76865;SDS011;66647;52.124;5.416;2023-04-08T13:12:28;4.10;;;1.98;;
76865;SDS011;66647;52.124;5.416;2023-04-08T13:14:55;7.25;;;3.22;;
76865;SDS011;66647;52.124;5.416;2023-04-08T13:17:23;9.80;;;2.72;;
76865;SDS011;66647;52.124;5.416;2023-04-08T13:19:51;7.75;;;3.17;;
76865;SDS011;66647;52.124;5.416;2023-04-08T13:22:18;5.28;;;3.22;;
76865;SDS011;66647;52.124;5.416;2023-04-08T13:24:44;8.05;;;3.50;;
76865;SDS011;66647;52.124;5.416;2023-04-08T13:27:19;7.85;;;4.32;;
76865;SDS011;66647;52.124;5.416;2023-04-08T13:29:49;6.95;;;3.33;;
76865;SDS011;66647;52.124;5.416;2023-04-08T13:32:45;7.43;;;3.53;;
76865;SDS011;66647;52.124;5.416;2023-04-08T13:35:14;6.38;;;3.70;;
76865;SDS011;66647;52.124;5.416;2023-04-08T13:37:41;7.88;;;2.90;;
76865;SDS011;66647;52.124;5.416;2023-04-08T13:40:10;6.53;;;3.47;;
76865;SDS011;66647;52.124;5.416;2023-04-08T13:42:37;5.63;;;2.80;;
76865;SDS011;66647;52.124;5.416;2023-04-08T13:45:04;7.63;;;3.08;;
76865;SDS011;66647;52.124;5.416;2023-04-08T13:47:31;5.43;;;3.00;;
76865;SDS011;66647;52.124;5.416;2023-04-08T13:50:00;6.65;;;3.55;;
76865;SDS011;66647;52.124;5.416;2023-04-08T13:52:27;7.13;;;3.58;;
76865;SDS011;66647;52.124;5.416;2023-04-08T13:54:56;7.07;;;3.25;;
76865;SDS011;66647;52.124;5.416;2023-04-08T13:57:30;7.03;;;3.35;;
76865;SDS011;66647;52.124;5.416;2023-04-08T14:00:02;7.80;;;3.47;;
76865;SDS011;66647;52.124;5.416;2023-04-08T14:02:35;6.78;;;3.53;;
76865;SDS011;66647;52.124;5.416;2023-04-08T14:05:02;6.10;;;3.38;;
76865;SDS011;66647;52.124;5.416;2023-04-08T14:07:29;6.38;;;2.05;;
76865;SDS011;66647;52.124;5.416;2023-04-08T14:09:58;5.53;;;2.70;;
76865;SDS011;66647;52.124;5.416;2023-04-08T14:12:26;6.60;;;3.15;;
76865;SDS011;66647;52.124;5.416;2023-04-08T14:14:53;6.55;;;2.40;;
76865;SDS011;66647;52.124;5.416;2023-04-08T14:17:19;5.30;;;2.45;;
76865;SDS011;66647;52.124;5.416;2023-04-08T14:19:46;6.30;;;2.70;;
76865;SDS011;66647;52.124;5.416;2023-04-08T14:22:14;6.40;;;2.72;;
76865;SDS011;66647;52.124;5.416;2023-04-08T14:24:44;6.13;;;3.35;;
76865;SDS011;66647;52.124;5.416;2023-04-08T14:27:11;6.53;;;2.45;;
76865;SDS011;66647;52.124;5.416;2023-04-08T14:29:37;8.55;;;3.15;;
76865;SDS011;66647;52.124;5.416;2023-04-08T14:32:04;5.63;;;2.33;;
76865;SDS011;66647;52.124;5.416;2023-04-08T14:34:35;7.38;;;2.83;;
76865;SDS011;66647;52.124;5.416;2023-04-08T14:37:03;5.75;;;2.75;;
76865;SDS011;66647;52.124;5.416;2023-04-08T14:45:32;7.55;;;1.60;;
76865;SDS011;66647;52.124;5.416;2023-04-08T14:48:09;6.30;;;2.08;;
76865;SDS011;66647;52.124;5.416;2023-04-08T14:50:40;5.70;;;2.25;;
76865;SDS011;66647;52.124;5.416;2023-04-08T14:53:07;7.80;;;2.53;;
76865;SDS011;66647;52.124;5.416;2023-04-08T14:55:33;5.72;;;2.08;;
76865;SDS011;66647;52.124;5.416;2023-04-08T14:58:02;6.45;;;2.42;;
76865;SDS011;66647;52.124;5.416;2023-04-08T15:00:29;6.78;;;3.67;;
76865;SDS011;66647;52.124;5.416;2023-04-08T15:02:56;7.70;;;3.00;;
76865;SDS011;66647;52.124;5.416;2023-04-08T15:05:23;8.18;;;3.13;;
76865;SDS011;66647;52.124;5.416;2023-04-08T15:07:52;6.20;;;2.83;;
76865;SDS011;66647;52.124;5.416;2023-04-08T15:10:25;8.30;;;3.58;;
76865;SDS011;66647;52.124;5.416;2023-04-08T15:15:19;8.73;;;3.40;;
76865;SDS011;66647;52.124;5.416;2023-04-08T15:17:46;7.53;;;3.17;;
76865;SDS011;66647;52.124;5.416;2023-04-08T15:20:14;9.60;;;3.20;;
76865;SDS011;66647;52.124;5.416;2023-04-08T15:22:43;8.20;;;3.83;;